createdAt,value
2023-05-15T00:01:23.262Z,23.15
2023-05-15T00:03:50.124Z,23.55
2023-05-15T00:06:16.572Z,24.45
2023-05-15T00:08:42.981Z,24.45
2023-05-15T00:11:09.444Z,23.05
2023-05-15T00:13:36.068Z,23.48
2023-05-15T00:16:02.819Z,24.38
2023-05-15T00:18:29.279Z,24.60
2023-05-15T00:20:55.978Z,22.83
2023-05-15T00:23:22.631Z,23.02
2023-05-15T00:25:49.134Z,23.15
2023-05-15T00:28:15.573Z,24.20
2023-05-15T00:30:44.813Z,25.13
2023-05-15T00:33:11.193Z,25.85
2023-05-15T00:35:37.991Z,25.30
2023-05-15T00:38:04.597Z,24.48
2023-05-15T00:40:32.240Z,25.02
2023-05-15T00:43:00.606Z,27.67
2023-05-15T00:45:29.094Z,23.75
2023-05-15T00:47:57.636Z,23.65
2023-05-15T00:50:24.572Z,23.48
2023-05-15T00:52:51.305Z,24.95
2023-05-15T00:55:18.008Z,24.38
2023-05-15T00:57:44.713Z,25.60
2023-05-15T01:00:12.427Z,25.55
2023-05-15T01:02:39.100Z,24.98
2023-05-15T01:05:08.086Z,26.50
2023-05-15T01:07:48.321Z,26.42
2023-05-15T01:10:19.498Z,26.10
2023-05-15T01:12:47.455Z,26.73
2023-05-15T01:15:14.069Z,26.77
2023-05-15T01:17:40.768Z,24.40
2023-05-15T01:20:10.686Z,25.83
2023-05-15T01:23:19.434Z,25.65
2023-05-15T01:26:11.010Z,24.35
2023-05-15T01:28:46.050Z,25.25
2023-05-15T01:31:16.936Z,25.85
2023-05-15T01:33:46.771Z,26.13
2023-05-15T01:36:24.554Z,26.98
2023-05-15T01:38:55.718Z,26.67
2023-05-15T01:41:31.631Z,26.00
2023-05-15T01:44:31.384Z,26.17
2023-05-15T01:47:01.686Z,28.40
2023-05-15T01:52:01.669Z,27.33
2023-05-15T01:54:29.386Z,25.10
2023-05-15T01:56:57.439Z,27.17
2023-05-15T01:59:27.964Z,26.55
2023-05-15T02:01:56.147Z,26.70
2023-05-15T02:04:22.731Z,27.33
2023-05-15T02:06:50.330Z,27.33
2023-05-15T02:09:18.183Z,26.63
2023-05-15T02:11:45.017Z,26.88
2023-05-15T02:14:13.117Z,27.23
2023-05-15T02:16:39.947Z,26.63
2023-05-15T02:19:06.556Z,29.13
2023-05-15T02:21:33.001Z,28.08
2023-05-15T02:23:59.400Z,29.20
2023-05-15T02:26:34.560Z,28.63
2023-05-15T02:29:09.949Z,29.15
2023-05-15T02:32:10.462Z,28.38
2023-05-15T02:34:55.809Z,28.45
2023-05-15T02:37:27.981Z,30.70
2023-05-15T02:39:57.970Z,29.23
2023-05-15T02:42:24.915Z,29.10
2023-05-15T02:44:54.213Z,29.67
2023-05-15T02:47:22.966Z,29.10
2023-05-15T02:49:50.207Z,30.00
2023-05-15T02:52:24.765Z,29.02
2023-05-15T02:54:51.333Z,29.55
2023-05-15T02:57:17.764Z,30.17
2023-05-15T02:59:44.481Z,31.00
2023-05-15T03:02:10.871Z,29.17
2023-05-15T03:04:37.690Z,27.65
2023-05-15T03:07:04.390Z,27.75
2023-05-15T03:09:30.800Z,26.92
2023-05-15T03:11:57.276Z,25.48
2023-05-15T03:14:23.887Z,27.42
2023-05-15T03:16:50.390Z,27.45
2023-05-15T03:19:16.990Z,25.77
2023-05-15T03:21:43.454Z,26.60
2023-05-15T03:24:09.867Z,26.55
2023-05-15T03:26:36.402Z,26.42
2023-05-15T03:29:02.831Z,27.42
2023-05-15T03:31:29.422Z,28.30
2023-05-15T03:33:58.177Z,29.35
2023-05-15T03:36:24.623Z,26.15
2023-05-15T03:38:51.398Z,27.23
2023-05-15T03:41:17.883Z,27.67
2023-05-15T03:43:44.302Z,28.48
2023-05-15T03:46:11.215Z,29.08
2023-05-15T03:48:37.702Z,27.75
2023-05-15T03:51:04.320Z,28.52
2023-05-15T03:53:30.761Z,29.35
2023-05-15T03:55:57.533Z,28.13
2023-05-15T03:58:24.129Z,28.60
2023-05-15T04:00:50.698Z,28.80
2023-05-15T04:03:17.420Z,28.10
2023-05-15T04:05:44.421Z,28.98
2023-05-15T04:08:12.410Z,27.67
2023-05-15T04:10:39.037Z,28.02
2023-05-15T04:13:05.717Z,28.80
2023-05-15T04:15:32.315Z,28.38
2023-05-15T04:17:58.780Z,27.80
2023-05-15T04:20:25.373Z,29.05
2023-05-15T04:22:52.730Z,28.13
2023-05-15T04:25:20.365Z,28.88
2023-05-15T04:27:47.163Z,30.00
2023-05-15T04:30:13.787Z,29.83
2023-05-15T04:32:41.215Z,29.83
2023-05-15T04:35:12.190Z,30.58
2023-05-15T04:37:41.930Z,28.90
2023-05-15T04:40:09.734Z,30.05
2023-05-15T04:42:37.762Z,31.15
2023-05-15T04:45:06.277Z,29.10
2023-05-15T04:47:32.834Z,29.75
2023-05-15T04:49:59.361Z,31.80
2023-05-15T04:52:25.768Z,30.48
2023-05-15T04:54:53.555Z,29.65
2023-05-15T04:57:20.047Z,30.60
2023-05-15T04:59:46.446Z,31.02
2023-05-15T05:02:13.538Z,30.25
2023-05-15T05:04:42.904Z,29.90
2023-05-15T05:07:09.403Z,30.40
2023-05-15T05:09:35.833Z,31.08
2023-05-15T05:12:02.373Z,31.83
2023-05-15T05:14:28.961Z,30.10
2023-05-15T05:16:55.857Z,29.58
2023-05-15T05:19:22.459Z,30.00
2023-05-15T05:21:49.025Z,32.38
2023-05-15T05:24:15.532Z,31.67
2023-05-15T05:26:44.214Z,31.95
2023-05-15T05:29:10.800Z,32.80
2023-05-15T05:31:37.286Z,31.85
2023-05-15T05:34:03.907Z,31.58
2023-05-15T05:36:30.327Z,31.20
2023-05-15T05:38:56.758Z,29.20
2023-05-15T05:41:23.168Z,30.30
2023-05-15T05:43:49.624Z,31.25
2023-05-15T05:46:16.036Z,28.38
2023-05-15T05:48:42.568Z,32.65
2023-05-15T05:51:09.008Z,26.52
2023-05-15T05:53:37.544Z,27.40
2023-05-15T05:56:04.816Z,28.55
2023-05-15T05:58:31.481Z,26.83
2023-05-15T06:00:58.220Z,25.77
2023-05-15T06:03:24.828Z,25.27
2023-05-15T06:05:51.359Z,24.38
2023-05-15T06:08:17.944Z,24.88
2023-05-15T06:10:44.693Z,34.13
2023-05-15T06:13:11.643Z,23.00
2023-05-15T06:15:38.086Z,25.45
2023-05-15T06:18:04.705Z,21.35
2023-05-15T06:20:31.210Z,23.65
2023-05-15T06:22:57.918Z,21.90
2023-05-15T06:25:24.444Z,24.10
2023-05-15T06:27:51.073Z,23.17
2023-05-15T06:30:17.664Z,23.88
2023-05-15T06:32:44.163Z,21.25
2023-05-15T06:35:11.016Z,22.10
2023-05-15T06:37:37.799Z,20.40
2023-05-15T06:40:05.714Z,20.60
2023-05-15T06:42:32.657Z,19.80
2023-05-15T06:44:59.484Z,19.25
2023-05-15T06:47:26.058Z,23.20
2023-05-15T06:49:53.897Z,19.02
2023-05-15T06:52:20.833Z,18.10
2023-05-15T06:54:48.328Z,18.15
2023-05-15T06:57:15.599Z,17.90
2023-05-15T06:59:42.048Z,21.60
2023-05-15T07:02:08.775Z,17.38
2023-05-15T07:04:35.649Z,21.05
2023-05-15T07:07:02.324Z,16.33
2023-05-15T07:09:28.866Z,18.05
2023-05-15T07:11:55.278Z,19.02
2023-05-15T07:14:21.694Z,17.63
2023-05-15T07:16:48.180Z,16.55
2023-05-15T07:19:18.551Z,15.75
2023-05-15T07:21:45.173Z,19.08
2023-05-15T07:24:11.624Z,15.07
2023-05-15T07:26:46.950Z,15.77
2023-05-15T07:29:23.785Z,17.40
2023-05-15T07:31:50.452Z,14.45
2023-05-15T07:34:16.972Z,14.38
2023-05-15T07:36:43.449Z,14.02
2023-05-15T07:39:10.546Z,12.80
2023-05-15T07:41:37.106Z,16.80
2023-05-15T07:44:03.580Z,14.07
2023-05-15T07:46:30.125Z,13.48
2023-05-15T07:48:56.537Z,15.40
2023-05-15T07:51:23.057Z,13.10
2023-05-15T07:53:49.505Z,13.77
2023-05-15T07:56:16.518Z,12.65
2023-05-15T07:58:43.007Z,12.57
2023-05-15T08:01:09.588Z,12.85
2023-05-15T08:03:36.108Z,13.10
2023-05-15T08:06:02.776Z,13.48
2023-05-15T08:08:29.525Z,13.60
2023-05-15T08:10:56.103Z,14.32
2023-05-15T08:13:22.677Z,14.02
2023-05-15T08:15:49.150Z,13.75
2023-05-15T08:18:15.787Z,13.57
2023-05-15T08:20:42.186Z,13.10
2023-05-15T08:23:08.808Z,13.85
2023-05-15T08:25:35.271Z,13.38
2023-05-15T08:28:02.577Z,13.43
2023-05-15T08:30:29.051Z,13.65
2023-05-15T08:32:55.732Z,13.80
2023-05-15T08:35:22.141Z,20.25
2023-05-15T08:37:48.579Z,18.20
2023-05-15T08:40:15.144Z,17.90
2023-05-15T08:42:48.971Z,18.52
2023-05-15T08:45:15.674Z,17.48
2023-05-15T08:47:43.049Z,16.90
2023-05-15T08:50:15.075Z,18.38
2023-05-15T08:52:43.376Z,18.35
2023-05-15T08:55:11.400Z,17.90
2023-05-15T08:57:38.543Z,18.58
2023-05-15T09:00:09.129Z,17.77
2023-05-15T09:02:37.219Z,17.63
2023-05-15T09:05:04.985Z,17.88
2023-05-15T09:07:31.945Z,17.25
2023-05-15T09:09:59.224Z,16.85
2023-05-15T09:12:26.772Z,16.63
2023-05-15T09:15:17.471Z,17.27
2023-05-15T09:17:45.183Z,16.20
2023-05-15T09:20:28.181Z,17.40
2023-05-15T09:22:55.915Z,16.48
2023-05-15T09:25:42.761Z,16.25
2023-05-15T09:28:11.772Z,16.52
2023-05-15T09:30:39.182Z,15.50
2023-05-15T09:33:05.988Z,15.38
2023-05-15T09:35:37.887Z,15.32
2023-05-15T09:38:09.215Z,15.38
2023-05-15T09:40:35.926Z,15.32
2023-05-15T09:43:02.617Z,14.88
2023-05-15T09:45:30.373Z,15.63
2023-05-15T09:48:00.409Z,14.80
2023-05-15T09:50:34.101Z,13.80
2023-05-15T09:53:00.880Z,15.10
2023-05-15T09:55:27.971Z,14.13
2023-05-15T09:58:11.911Z,14.73
2023-05-15T10:00:48.502Z,16.23
2023-05-15T10:03:16.808Z,14.38
2023-05-15T10:05:44.310Z,14.13
2023-05-15T10:08:11.404Z,15.50
2023-05-15T10:10:38.244Z,15.35
2023-05-15T10:13:07.260Z,16.05
2023-05-15T10:15:34.174Z,15.18
2023-05-15T10:18:04.165Z,14.90
2023-05-15T10:20:32.089Z,13.75
2023-05-15T10:23:00.539Z,14.52
2023-05-15T10:25:50.297Z,14.13
2023-05-15T10:30:44.127Z,13.15
2023-05-15T10:33:11.564Z,12.73
2023-05-15T10:35:40.128Z,12.70
2023-05-15T10:38:07.252Z,12.18
2023-05-15T10:40:37.456Z,12.73
2023-05-15T10:43:05.591Z,12.77
2023-05-15T10:45:33.324Z,12.25
2023-05-15T10:48:01.372Z,12.10
2023-05-15T10:50:28.170Z,15.20
2023-05-15T10:52:55.830Z,13.25
2023-05-15T10:55:22.855Z,13.68
2023-05-15T10:57:49.936Z,13.40
2023-05-15T11:00:22.431Z,13.75
2023-05-15T11:02:53.538Z,12.95
2023-05-15T11:05:20.272Z,13.63
2023-05-15T11:08:15.454Z,13.27
2023-05-15T11:10:42.134Z,14.43
2023-05-15T11:13:08.774Z,13.85
2023-05-15T11:15:43.503Z,14.70
2023-05-15T11:18:10.354Z,14.00
2023-05-15T11:21:02.928Z,13.95
2023-05-15T11:23:37.424Z,14.90
2023-05-15T11:26:05.682Z,12.70
2023-05-15T11:28:42.392Z,12.45
2023-05-15T11:31:09.003Z,16.60
2023-05-15T11:33:39.475Z,13.57
2023-05-15T11:36:06.913Z,12.57
2023-05-15T11:38:38.968Z,13.60
2023-05-15T11:41:18.196Z,13.75
2023-05-15T11:43:44.838Z,13.23
2023-05-15T11:46:13.729Z,13.60
2023-05-15T11:48:47.546Z,12.97
2023-05-15T11:51:19.810Z,13.05
2023-05-15T11:53:47.498Z,13.63
2023-05-15T11:56:25.714Z,13.50
2023-05-15T11:58:55.770Z,17.60
2023-05-15T12:01:22.882Z,13.32
2023-05-15T12:03:50.494Z,13.93
2023-05-15T12:06:18.149Z,16.08
2023-05-15T12:08:50.289Z,16.60
2023-05-15T12:11:16.742Z,17.33
2023-05-15T12:13:43.169Z,17.42
2023-05-15T12:16:09.725Z,15.27
2023-05-15T12:18:36.323Z,14.68
2023-05-15T12:21:04.914Z,16.95
2023-05-15T12:23:32.384Z,18.90
2023-05-15T12:26:03.366Z,21.17
2023-05-15T12:28:31.737Z,21.63
2023-05-15T12:30:59.385Z,21.63
2023-05-15T12:33:26.126Z,18.58
2023-05-15T12:36:00.811Z,21.33
2023-05-15T12:38:28.445Z,18.75
2023-05-15T12:40:55.195Z,21.63
2023-05-15T12:43:25.050Z,21.63
2023-05-15T12:45:55.855Z,18.42
2023-05-15T12:48:22.964Z,22.55
2023-05-15T12:50:50.152Z,20.45
2023-05-15T12:53:16.996Z,20.67
2023-05-15T12:55:46.997Z,22.55
2023-05-15T12:58:15.730Z,20.20
2023-05-15T13:00:46.007Z,21.45
2023-05-15T13:03:13.850Z,22.95
2023-05-15T13:05:43.621Z,20.30
2023-05-15T13:08:15.560Z,26.42
2023-05-15T13:10:42.025Z,22.88
2023-05-15T13:13:08.518Z,26.02
2023-05-15T13:15:39.229Z,25.33
2023-05-15T13:18:17.399Z,25.23
2023-05-15T13:20:48.680Z,31.70
2023-05-15T13:23:17.548Z,26.08
2023-05-15T13:25:44.648Z,24.60
2023-05-15T13:28:11.782Z,27.83
2023-05-15T13:30:41.576Z,29.85
2023-05-15T13:35:36.661Z,27.48
2023-05-15T13:38:03.436Z,24.35
2023-05-15T13:40:32.507Z,27.75
2023-05-15T13:42:58.954Z,24.20
2023-05-15T13:45:25.705Z,28.42
2023-05-15T13:47:52.346Z,24.30
2023-05-15T13:50:18.801Z,24.23
2023-05-15T13:52:46.093Z,25.38
2023-05-15T13:55:15.283Z,25.40
2023-05-15T13:57:43.262Z,31.10
2023-05-15T14:00:14.021Z,29.02
2023-05-15T14:02:42.985Z,28.27
2023-05-15T14:05:11.419Z,29.92
2023-05-15T14:07:38.045Z,26.35
2023-05-15T14:10:04.986Z,31.17
2023-05-15T14:12:32.522Z,24.35
2023-05-15T14:14:59.374Z,25.65
2023-05-15T14:17:26.162Z,27.27
2023-05-15T14:19:52.919Z,26.23
2023-05-15T14:22:19.358Z,26.63
2023-05-15T14:24:45.793Z,26.65
2023-05-15T14:27:12.714Z,29.88
2023-05-15T14:29:39.782Z,24.70
2023-05-15T14:32:06.796Z,23.58
2023-05-15T14:34:34.250Z,26.58
2023-05-15T14:37:03.182Z,27.73
2023-05-15T14:39:30.016Z,26.63
2023-05-15T14:41:56.468Z,27.63
2023-05-15T14:44:22.888Z,32.75
2023-05-15T14:47:12.241Z,28.10
2023-05-15T14:49:39.975Z,28.23
2023-05-15T14:52:08.928Z,28.88
2023-05-15T14:54:35.758Z,35.50
2023-05-15T14:57:02.420Z,35.33
2023-05-15T14:59:28.876Z,33.40
2023-05-15T15:01:55.398Z,32.13
2023-05-15T15:04:21.852Z,32.85
2023-05-15T15:06:48.309Z,30.42
2023-05-15T15:09:14.936Z,30.17
2023-05-15T15:11:41.467Z,29.13
2023-05-15T15:14:07.951Z,25.55
2023-05-15T15:16:34.672Z,25.63
2023-05-15T15:19:01.211Z,24.42
2023-05-15T15:21:27.735Z,25.30
2023-05-15T15:23:55.164Z,25.10
2023-05-15T15:26:21.758Z,28.35
2023-05-15T15:28:48.485Z,25.15
2023-05-15T15:31:15.647Z,22.25
2023-05-15T15:33:42.168Z,24.52
2023-05-15T15:36:08.835Z,24.05
2023-05-15T15:38:35.923Z,22.92
2023-05-15T15:41:03.602Z,21.45
2023-05-15T15:43:30.121Z,19.25
2023-05-15T15:45:56.626Z,22.08
2023-05-15T15:48:23.189Z,19.20
2023-05-15T15:50:51.659Z,18.83
2023-05-15T15:53:18.139Z,18.95
2023-05-15T15:55:46.423Z,19.67
2023-05-15T15:58:13.790Z,20.08
2023-05-15T16:00:41.202Z,18.63
2023-05-15T16:03:07.980Z,19.80
2023-05-15T16:05:34.619Z,21.17
2023-05-15T16:08:01.053Z,18.48
2023-05-15T16:10:27.633Z,20.45
2023-05-15T16:12:55.250Z,20.00
2023-05-15T16:15:23.783Z,22.75
2023-05-15T16:17:54.781Z,19.83
2023-05-15T16:20:21.852Z,19.75
2023-05-15T16:22:48.293Z,18.38
2023-05-15T16:25:14.765Z,19.52
2023-05-15T16:27:41.245Z,18.13
2023-05-15T16:30:09.416Z,19.60
2023-05-15T16:32:36.330Z,23.58
2023-05-15T16:35:03.494Z,21.67
2023-05-15T16:37:29.980Z,20.58
2023-05-15T16:39:56.740Z,20.17
2023-05-15T16:42:23.272Z,17.85
2023-05-15T16:44:49.783Z,20.20
2023-05-15T16:47:18.097Z,18.58
2023-05-15T16:49:45.732Z,17.20
2023-05-15T16:52:13.491Z,21.60
2023-05-15T16:54:41.866Z,20.00
2023-05-15T16:57:08.312Z,17.85
2023-05-15T16:59:34.800Z,18.65
2023-05-15T17:02:01.510Z,21.48
2023-05-15T17:04:29.084Z,17.17
2023-05-15T17:06:56.883Z,19.63
2023-05-15T17:09:23.483Z,19.05
2023-05-15T17:11:49.846Z,17.95
2023-05-15T17:14:16.701Z,18.50
2023-05-15T17:16:43.346Z,18.42
2023-05-15T17:19:10.164Z,21.35
2023-05-15T17:21:37.617Z,16.33
2023-05-15T17:24:04.179Z,16.75
2023-05-15T17:26:30.594Z,16.45
2023-05-15T17:28:57.586Z,18.73
2023-05-15T17:31:24.117Z,17.30
2023-05-15T17:33:50.774Z,18.48
2023-05-15T17:36:20.029Z,16.85
2023-05-15T17:38:46.686Z,16.10
2023-05-15T17:41:13.100Z,16.05
2023-05-15T17:43:39.574Z,15.48
2023-05-15T17:46:06.095Z,15.32
2023-05-15T17:48:32.955Z,16.33
2023-05-15T17:50:59.378Z,21.70
2023-05-15T17:53:25.830Z,17.05
2023-05-15T17:55:52.256Z,21.15
2023-05-15T17:58:18.775Z,15.98
2023-05-15T18:00:45.969Z,16.48
2023-05-15T18:03:12.480Z,17.45
2023-05-15T18:05:39.187Z,17.70
2023-05-15T18:08:06.729Z,19.73
2023-05-15T18:10:33.317Z,16.63
2023-05-15T18:12:59.783Z,17.40
2023-05-15T18:15:26.694Z,16.80
2023-05-15T18:17:53.329Z,17.58
2023-05-15T18:20:19.939Z,17.35
2023-05-15T18:22:46.349Z,18.70
2023-05-15T18:25:12.851Z,17.25
2023-05-15T18:27:39.314Z,17.42
2023-05-15T18:30:06.612Z,17.15
2023-05-15T18:32:33.429Z,20.00
2023-05-15T18:34:59.971Z,20.55
2023-05-15T18:37:26.560Z,21.90
2023-05-15T18:39:56.517Z,16.80
2023-05-15T18:42:23.578Z,21.80
2023-05-15T18:44:50.001Z,19.90
2023-05-15T18:47:16.462Z,19.83
2023-05-15T18:49:43.212Z,19.73
2023-05-15T18:52:09.945Z,16.90
2023-05-15T18:54:36.470Z,18.90
2023-05-15T18:57:02.939Z,17.92
2023-05-15T18:59:29.491Z,17.63
2023-05-15T19:01:55.982Z,18.25
2023-05-15T19:04:22.836Z,17.55
2023-05-15T19:06:50.299Z,21.15
2023-05-15T19:09:20.308Z,19.77
2023-05-15T19:11:49.208Z,17.88
2023-05-15T19:14:17.653Z,18.02
2023-05-15T19:16:47.047Z,17.80
2023-05-15T19:19:13.721Z,16.67
2023-05-15T19:21:40.242Z,18.15
2023-05-15T19:24:07.282Z,19.33
2023-05-15T19:26:33.792Z,15.70
2023-05-15T19:29:00.297Z,20.25
2023-05-15T19:31:31.956Z,25.05
2023-05-15T19:33:59.607Z,21.58
2023-05-15T19:36:26.492Z,22.02
2023-05-15T19:38:53.346Z,22.92
2023-05-15T19:41:19.798Z,22.20
2023-05-15T19:43:46.946Z,25.05
2023-05-15T19:46:13.870Z,22.67
2023-05-15T19:48:40.585Z,21.73
2023-05-15T19:51:07.175Z,24.35
2023-05-15T19:53:33.788Z,26.08
2023-05-15T19:56:00.262Z,25.70
2023-05-15T19:58:26.724Z,21.90
2023-05-15T20:00:54.106Z,23.05
2023-05-15T20:03:21.629Z,23.98
2023-05-15T20:05:48.515Z,23.83
2023-05-15T20:08:16.881Z,23.52
2023-05-15T20:10:44.483Z,29.83
2023-05-15T20:13:11.347Z,24.88
2023-05-15T20:15:39.928Z,28.13
2023-05-15T20:18:07.515Z,27.85
2023-05-15T20:20:34.740Z,22.50
2023-05-15T20:23:01.297Z,24.40
2023-05-15T20:25:29.027Z,22.10
2023-05-15T20:27:58.420Z,25.65
2023-05-15T20:30:25.412Z,22.90
2023-05-15T20:32:52.074Z,28.80
2023-05-15T20:35:18.629Z,29.92
2023-05-15T20:37:46.239Z,22.30
2023-05-15T20:40:13.074Z,22.80
2023-05-15T20:42:39.813Z,25.35
2023-05-15T20:45:08.714Z,27.05
2023-05-15T20:47:35.884Z,23.05
2023-05-15T20:50:02.666Z,30.00
2023-05-15T20:52:29.244Z,22.80
2023-05-15T20:54:55.680Z,22.60
2023-05-15T20:57:22.241Z,21.92
2023-05-15T20:59:48.603Z,24.52
2023-05-15T21:02:15.045Z,24.67
2023-05-15T21:04:41.710Z,24.83
2023-05-15T21:07:08.650Z,21.90
2023-05-15T21:09:35.262Z,25.95
2023-05-15T21:12:04.078Z,21.75
2023-05-15T21:14:30.665Z,28.25
2023-05-15T21:16:57.194Z,22.63
2023-05-15T21:19:23.999Z,21.48
2023-05-15T21:21:50.782Z,21.67
2023-05-15T21:24:17.245Z,20.85
2023-05-15T21:26:43.653Z,19.42
2023-05-15T21:29:10.184Z,19.10
2023-05-15T21:31:36.712Z,20.38
2023-05-15T21:34:03.229Z,23.92
2023-05-15T21:36:29.616Z,20.33
2023-05-15T21:38:56.008Z,19.00
2023-05-15T21:41:22.730Z,20.10
2023-05-15T21:43:49.149Z,20.33
2023-05-15T21:46:15.602Z,18.65
2023-05-15T21:48:42.029Z,19.63
2023-05-15T21:51:08.637Z,22.13
2023-05-15T21:53:35.290Z,19.60
2023-05-15T21:56:02.580Z,19.85
2023-05-15T21:58:29.262Z,20.80
2023-05-15T22:00:55.892Z,20.08
2023-05-15T22:03:22.667Z,17.98
2023-05-15T22:05:51.464Z,19.02
2023-05-15T22:08:18.244Z,18.88
2023-05-15T22:10:44.902Z,17.80
2023-05-15T22:13:11.677Z,19.85
2023-05-15T22:15:38.367Z,24.33
2023-05-15T22:18:08.106Z,18.30
2023-05-15T22:20:34.594Z,18.38
2023-05-15T22:23:01.055Z,19.05
2023-05-15T22:25:27.559Z,19.17
2023-05-15T22:27:54.075Z,18.48
2023-05-15T22:30:21.007Z,19.38
2023-05-15T22:32:47.477Z,20.98
2023-05-15T22:35:13.927Z,17.95
2023-05-15T22:37:41.971Z,17.73
2023-05-15T22:40:10.478Z,17.67
2023-05-15T22:42:37.129Z,18.15
2023-05-15T22:45:04.775Z,17.92
2023-05-15T22:47:32.020Z,16.98
2023-05-15T22:49:58.642Z,17.25
2023-05-15T22:52:25.902Z,17.27
2023-05-15T22:54:52.319Z,17.52
2023-05-15T22:57:18.754Z,17.33
2023-05-15T22:59:45.780Z,16.95
2023-05-15T23:02:12.328Z,17.33
2023-05-15T23:04:39.154Z,17.98
2023-05-15T23:07:05.846Z,16.88
2023-05-15T23:09:32.480Z,17.10
2023-05-15T23:11:58.922Z,16.77
2023-05-15T23:14:25.796Z,18.42
2023-05-15T23:16:52.511Z,17.15
2023-05-15T23:19:19.070Z,17.02
2023-05-15T23:21:46.153Z,17.17
2023-05-15T23:24:12.741Z,16.60
2023-05-15T23:26:39.180Z,16.45
2023-05-15T23:29:05.680Z,16.80
2023-05-15T23:31:33.536Z,17.05
2023-05-15T23:33:59.993Z,16.45
2023-05-15T23:36:26.475Z,17.30
2023-05-15T23:38:53.021Z,16.55
2023-05-15T23:41:19.539Z,15.80
2023-05-15T23:43:45.989Z,15.77
2023-05-15T23:46:12.525Z,15.60
2023-05-15T23:48:39.175Z,16.20
2023-05-15T23:51:05.945Z,16.13
2023-05-15T23:53:32.405Z,16.58
2023-05-15T23:55:58.846Z,16.20
2023-05-15T23:58:25.484Z,16.67
